Time;durP1;ratioP1;P1;durP2;ratioP2;P2;SDS_P1;SDS_P2;PMS_P1;PMS_P2;Temp;Humidity;BMP_temperature;BMP_pressure;BME280_temperature;BME280_humidity;BME280_pressure;Samples;Min_cycle;Max_cycle;Signal;HPM_P1;HPM_P2
2023/05/13 00:02:27;;;;;;;;;;;;;;;19.20;67.31;101487.13;7398484;19;1281;-56
2023/05/13 00:04:56;;;;;;;;;;;;;;;19.14;67.33;101471.53;7397566;19;1533;-56
2023/05/13 00:07:24;;;;;;;;;;;;;;;19.13;67.19;101472.50;7396829;19;1958;-56
2023/05/13 00:09:53;;;;;;;;;;;;;;;19.14;67.01;101487.59;7396400;19;1823;-56
2023/05/13 00:12:21;;;;;;;;;;;;;;;19.08;67.27;101484.44;7398390;19;1518;-56
2023/05/13 00:14:52;;;;;;;;;;;;;;;19.13;67.42;101480.56;7398830;19;1293;-56
2023/05/13 00:17:20;;;;;;;;;;;;;;;19.12;67.41;101484.19;7397637;19;1171;-55
2023/05/13 00:19:49;;;;;;;;;;;;;;;19.17;67.29;101473.97;7396548;19;1851;-56
2023/05/13 00:22:17;;;;;;;;;;;;;;;19.08;67.13;101472.88;7398288;19;1490;-56
2023/05/13 00:24:45;;;;;;;;;;;;;;;19.12;67.41;101468.09;7398649;19;1530;-56
2023/05/13 00:27:13;;;;;;;;;;;;;;;19.13;67.18;101486.75;7398289;19;1428;-56
2023/05/13 00:29:42;;;;;;;;;;;;;;;19.19;67.30;101491.66;7396684;19;1217;-56
2023/05/13 00:32:12;;;;;;;;;;;;;;;19.22;67.06;101495.94;7397897;19;1254;-56
2023/05/13 00:34:41;;;;;;;;;;;;;;;19.17;67.32;101492.75;7397285;19;1209;-56
2023/05/13 00:37:10;;;;;;;;;;;;;;;19.26;66.91;101489.38;7396528;19;1545;-56
2023/05/13 00:39:39;;;;;;;;;;;;;;;19.26;66.88;101489.38;7394804;19;1857;-56
2023/05/13 00:42:10;;;;;;;;;;;;;;;19.18;67.02;101484.59;7396050;19;1491;-56
2023/05/13 00:44:38;;;;;;;;;;;;;;;19.24;66.85;101491.31;7395945;19;1557;-56
2023/05/13 00:47:06;;;;;;;;;;;;;;;19.17;66.98;101487.38;7395904;19;1625;-56
2023/05/13 00:49:37;;;;;;;;;;;;;;;19.19;67.25;101501.53;7395515;19;1547;-56
2023/05/13 00:52:06;;;;;;;;;;;;;;;19.16;66.96;101486.53;7395318;19;1628;-55
2023/05/13 00:54:34;;;;;;;;;;;;;;;19.16;67.23;101483.84;7395312;19;1281;-56
2023/05/13 00:57:03;;;;;;;;;;;;;;;19.17;66.97;101479.34;7396199;19;1221;-56
2023/05/13 00:59:32;;;;;;;;;;;;;;;19.10;67.00;101488.81;7395301;19;2038;-56
2023/05/13 01:02:05;;;;;;;;;;;;;;;19.13;67.08;101480.56;7395709;19;1557;-56
2023/05/13 01:04:38;;;;;;;;;;;;;;;19.17;66.86;101498.13;7396825;19;1547;-56
2023/05/13 01:07:16;;;;;;;;;;;;;;;19.12;66.80;101490.44;7396033;19;1834;-56
2023/05/13 01:09:52;;;;;;;;;;;;;;;19.03;67.04;101477.72;7394038;19;1238;-56
2023/05/13 01:12:22;;;;;;;;;;;;;;;18.83;67.21;101447.09;7394994;19;1260;-56
2023/05/13 01:14:53;;;;;;;;;;;;;;;19.03;67.06;101491.97;7395894;19;1491;-56
2023/05/13 01:17:25;;;;;;;;;;;;;;;18.97;67.23;101484.41;7395460;19;1317;-56
2023/05/13 01:19:56;;;;;;;;;;;;;;;18.95;67.24;101489.03;7394717;19;1853;-56
2023/05/13 01:22:27;;;;;;;;;;;;;;;18.97;67.09;101499.66;7395321;19;1842;-56
2023/05/13 01:24:55;;;;;;;;;;;;;;;18.99;66.79;101503.91;7396031;19;1186;-56
2023/05/13 01:27:23;;;;;;;;;;;;;;;18.90;67.06;101496.59;7396325;19;1043;-56
2023/05/13 01:29:52;;;;;;;;;;;;;;;18.90;67.30;101501.94;7394832;19;1296;-56
2023/05/13 01:32:20;;;;;;;;;;;;;;;18.94;66.96;101506.09;7396093;19;1249;-56
2023/05/13 01:34:49;;;;;;;;;;;;;;;18.93;67.09;101512.41;7395986;19;1831;-55
2023/05/13 01:37:18;;;;;;;;;;;;;;;19.00;66.86;101491.34;7395951;19;1582;-55
2023/05/13 01:39:49;;;;;;;;;;;;;;;18.92;67.09;101502.69;7394875;19;1859;-56
2023/05/13 01:42:17;;;;;;;;;;;;;;;18.97;66.61;101508.53;7396649;19;1723;-55
2023/05/13 01:44:45;;;;;;;;;;;;;;;18.97;66.76;101513.91;7395928;19;1541;-55
2023/05/13 01:47:14;;;;;;;;;;;;;;;18.93;67.09;101507.06;7396126;19;1698;-56
2023/05/13 01:49:42;;;;;;;;;;;;;;;19.02;66.66;101521.56;7395230;19;1257;-55
2023/05/13 01:52:11;;;;;;;;;;;;;;;19.01;66.75;101517.19;7395254;19;1478;-55
2023/05/13 01:54:39;;;;;;;;;;;;;;;18.94;66.93;101503.44;7395363;19;1515;-56
2023/05/13 01:57:10;;;;;;;;;;;;;;;18.93;66.85;101520.47;7395693;19;1314;-55
2023/05/13 01:59:38;;;;;;;;;;;;;;;18.93;66.88;101523.16;7394579;19;1840;-56
2023/05/13 02:02:07;;;;;;;;;;;;;;;18.93;66.84;101516.94;7402185;19;1533;-55
2023/05/13 02:04:35;;;;;;;;;;;;;;;18.95;66.98;101521.19;7402090;19;1409;-56
2023/05/13 02:07:03;;;;;;;;;;;;;;;18.93;66.83;101527.66;7401711;19;1194;-56
2023/05/13 02:09:32;;;;;;;;;;;;;;;18.94;66.75;101524.00;7398801;19;1444;-56
2023/05/13 02:12:00;;;;;;;;;;;;;;;18.97;66.74;101535.34;7401816;19;1269;-56
2023/05/13 02:14:31;;;;;;;;;;;;;;;18.92;66.78;101513.41;7402400;19;1498;-55
2023/05/13 02:16:59;;;;;;;;;;;;;;;18.88;66.86;101533.38;7402472;19;1557;-55
2023/05/13 02:19:27;;;;;;;;;;;;;;;18.91;66.88;101522.41;7401615;19;1851;-55
2023/05/13 02:21:56;;;;;;;;;;;;;;;18.91;66.69;101513.53;7402251;19;1234;-56
2023/05/13 02:24:24;;;;;;;;;;;;;;;18.86;66.78;101511.16;7399127;19;2080;-55
2023/05/13 02:26:53;;;;;;;;;;;;;;;18.87;66.33;101526.28;7401745;19;1257;-56
2023/05/13 02:29:21;;;;;;;;;;;;;;;18.81;67.19;101508.84;7402577;19;1690;-56
2023/05/13 02:31:52;;;;;;;;;;;;;;;18.79;66.78;101504.56;7402585;19;1177;-55
2023/05/13 02:34:20;;;;;;;;;;;;;;;18.74;66.91;101512.94;7401863;19;1573;-55
2023/05/13 02:36:49;;;;;;;;;;;;;;;18.83;66.49;101511.41;7401370;19;1968;-56
2023/05/13 02:39:17;;;;;;;;;;;;;;;18.80;66.40;101506.28;7401384;19;1856;-55
2023/05/13 02:41:45;;;;;;;;;;;;;;;18.83;66.50;101511.41;7401613;19;1573;-56
2023/05/13 02:44:14;;;;;;;;;;;;;;;18.81;66.65;101508.00;7401401;19;1515;-58
2023/05/13 02:46:43;;;;;;;;;;;;;;;18.83;66.38;101509.59;7401107;19;1412;-56
2023/05/13 02:49:13;;;;;;;;;;;;;;;18.86;66.46;101513.84;7401543;19;1176;-56
2023/05/13 02:51:42;;;;;;;;;;;;;;;18.78;66.32;101513.53;7401638;19;1511;-56
2023/05/13 02:54:10;;;;;;;;;;;;;;;18.78;66.59;101518.91;7400748;19;1587;-56
2023/05/13 02:56:38;;;;;;;;;;;;;;;18.83;66.59;101511.41;7401580;19;1483;-56
2023/05/13 02:59:07;;;;;;;;;;;;;;;18.79;66.55;101515.28;7398266;19;1843;-56
2023/05/13 03:01:35;;;;;;;;;;;;;;;18.80;66.36;101525.03;7400704;19;1561;-56
2023/05/13 03:04:03;;;;;;;;;;;;;;;18.77;66.22;101514.53;7400419;19;1605;-57
2023/05/13 03:06:34;;;;;;;;;;;;;;;18.77;66.33;101511.84;7400529;19;1212;-56
2023/05/13 03:09:02;;;;;;;;;;;;;;;18.78;66.50;101529.63;7398834;19;1261;-56
2023/05/13 03:11:31;;;;;;;;;;;;;;;18.78;66.26;101525.16;7400105;19;1167;-56
2023/05/13 03:13:59;;;;;;;;;;;;;;;18.80;66.51;101514.31;7399695;19;1206;-56
2023/05/13 03:16:27;;;;;;;;;;;;;;;18.82;66.63;101520.41;7398590;19;1962;-56
2023/05/13 03:18:56;;;;;;;;;;;;;;;18.81;66.64;101537.47;7400727;19;1213;-56
2023/05/13 03:21:24;;;;;;;;;;;;;;;18.80;66.45;101533.06;7396478;19;1855;-56
2023/05/13 03:23:55;;;;;;;;;;;;;;;18.76;66.64;101527.09;7399543;19;1597;-56
2023/05/13 03:26:23;;;;;;;;;;;;;;;18.81;66.52;101535.66;7399122;19;1240;-56
2023/05/13 03:28:51;;;;;;;;;;;;;;;18.80;66.48;101533.06;7400492;19;1016;-56
2023/05/13 03:31:20;;;;;;;;;;;;;;;18.76;66.56;101519.03;7399532;19;1544;-56
2023/05/13 03:33:48;;;;;;;;;;;;;;;18.81;66.52;101532.97;7398972;19;1383;-56
2023/05/13 03:36:17;;;;;;;;;;;;;;;18.76;66.20;101527.09;7398953;19;1483;-57
2023/05/13 03:38:45;;;;;;;;;;;;;;;18.78;66.41;101540.34;7399178;19;1582;-56
2023/05/13 03:41:16;;;;;;;;;;;;;;;18.83;66.22;101532.84;7397387;19;1849;-56
2023/05/13 03:43:44;;;;;;;;;;;;;;;18.78;66.09;101548.38;7399159;19;1194;-56
2023/05/13 03:46:13;;;;;;;;;;;;;;;18.76;66.21;101553.00;7398679;19;1519;-56
2023/05/13 03:48:41;;;;;;;;;;;;;;;18.69;66.14;101558.81;7398373;19;1542;-56
2023/05/13 03:51:09;;;;;;;;;;;;;;;18.71;66.18;101548.00;7398506;19;1862;-56
2023/05/13 03:53:37;;;;;;;;;;;;;;;18.75;66.00;101562.03;7398913;19;1633;-56
2023/05/13 03:56:06;;;;;;;;;;;;;;;18.89;65.93;101548.47;7398716;19;1546;-56
2023/05/13 03:58:37;;;;;;;;;;;;;;;18.99;65.57;101556.66;7398557;19;1277;-56
2023/05/13 04:01:06;;;;;;;;;;;;;;;19.01;65.91;101568.13;7396964;19;2408;-56
2023/05/13 04:03:34;;;;;;;;;;;;;;;19.03;65.72;101575.06;7399117;19;1436;-56
2023/05/13 04:06:02;;;;;;;;;;;;;;;18.97;65.88;101562.16;7399985;19;1060;-56
2023/05/13 04:08:31;;;;;;;;;;;;;;;18.91;65.46;101559.94;7397369;19;1269;-56
2023/05/13 04:10:59;;;;;;;;;;;;;;;19.02;65.61;101568.03;7398269;19;1550;-56
2023/05/13 04:13:27;;;;;;;;;;;;;;;19.03;65.50;101556.31;7398511;19;1478;-56
2023/05/13 04:15:58;;;;;;;;;;;;;;;19.06;65.54;101574.00;7398069;19;1608;-56
2023/05/13 04:18:26;;;;;;;;;;;;;;;19.04;65.54;101576.81;7398211;19;1450;-56
2023/05/13 04:20:55;;;;;;;;;;;;;;;19.05;65.44;101578.50;7396301;19;1850;-56
2023/05/13 04:23:23;;;;;;;;;;;;;;;19.06;65.67;101574.84;7395946;19;1569;-56
2023/05/13 04:25:52;;;;;;;;;;;;;;;19.13;65.28;101590.47;7397160;19;1855;-56
2023/05/13 04:28:20;;;;;;;;;;;;;;;19.14;65.35;101598.41;7399296;19;1293;-56
2023/05/13 04:30:48;;;;;;;;;;;;;;;19.21;65.20;101580.03;7398352;19;1633;-56
2023/05/13 04:33:19;;;;;;;;;;;;;;;19.12;65.45;101595.00;7398063;19;1530;-56
2023/05/13 04:35:48;;;;;;;;;;;;;;;19.08;65.63;101583.63;7398048;19;1561;-56
2023/05/13 04:38:16;;;;;;;;;;;;;;;19.05;65.81;101596.41;7398249;19;1496;-56
2023/05/13 04:40:46;;;;;;;;;;;;;;;19.20;65.10;101589.03;7397327;19;1861;-56
2023/05/13 04:43:14;;;;;;;;;;;;;;;19.16;65.46;101592.91;7397640;19;1596;-56
2023/05/13 04:45:42;;;;;;;;;;;;;;;19.24;65.50;101601.25;7397211;19;1202;-56
2023/05/13 04:48:11;;;;;;;;;;;;;;;19.43;64.99;101589.94;7397460;19;1509;-56
2023/05/13 04:50:46;;;;;;;;;;;;;;;19.30;65.77;101599.91;7397523;19;1411;-56
2023/05/13 04:53:14;;;;;;;;;;;;;;;19.35;65.23;101606.63;7396538;19;1534;-56
2023/05/13 04:55:42;;;;;;;;;;;;;;;19.22;65.46;101605.88;7396957;19;1265;-56
2023/05/13 04:58:10;;;;;;;;;;;;;;;19.27;65.68;101607.22;7396632;19;1412;-56
2023/05/13 05:00:39;;;;;;;;;;;;;;;19.25;65.75;101594.91;7395398;19;1845;-56
2023/05/13 05:03:07;;;;;;;;;;;;;;;19.31;65.39;101605.16;7396764;19;1319;-56
2023/05/13 05:05:35;;;;;;;;;;;;;;;19.26;65.69;101594.78;7397136;19;1166;-56
2023/05/13 05:08:06;;;;;;;;;;;;;;;19.38;65.69;101601.03;7395548;19;1542;-56
2023/05/13 05:10:35;;;;;;;;;;;;;;;19.30;66.04;101590.06;7395131;19;1562;-56
2023/05/13 05:13:04;;;;;;;;;;;;;;;19.25;66.82;101603.78;7397204;19;1231;-56
2023/05/13 05:15:32;;;;;;;;;;;;;;;19.31;66.48;101605.16;7395929;19;1483;-56
2023/05/13 05:18:00;;;;;;;;;;;;;;;19.19;67.17;101600.72;7396700;19;1491;-56
2023/05/13 05:20:28;;;;;;;;;;;;;;;19.46;66.52;101589.72;7396581;19;1857;-57
2023/05/13 05:22:57;;;;;;;;;;;;;;;19.77;65.58;101609.69;7396743;19;1613;-55
2023/05/13 05:25:28;;;;;;;;;;;;;;;19.52;66.74;101601.78;6869480;19;10000271;-59
2023/05/13 05:27:56;;;;;;;;;;;;;;;19.57;66.29;101599.63;7391942;19;1262;-56
2023/05/13 05:30:25;;;;;;;;;;;;;;;19.35;66.61;101593.22;7391376;19;1561;-57
2023/05/13 05:32:53;;;;;;;;;;;;;;;19.58;66.36;101594.13;7390868;19;1522;-56
2023/05/13 05:35:21;;;;;;;;;;;;;;;19.79;65.94;101597.00;7394446;19;1535;-56
2023/05/13 05:37:50;;;;;;;;;;;;;;;19.60;66.49;101608.28;7397919;19;1608;-56
2023/05/13 05:40:18;;;;;;;;;;;;;;;19.69;66.19;101617.44;7397351;19;1886;-56
2023/05/13 05:42:49;;;;;;;;;;;;;;;19.76;66.35;101613.34;7397463;19;1483;-56
2023/05/13 05:45:17;;;;;;;;;;;;;;;19.55;68.09;101620.34;7398354;19;1561;-56
2023/05/13 05:47:46;;;;;;;;;;;;;;;19.77;66.98;101612.34;7396793;19;1552;-56
2023/05/13 05:50:14;;;;;;;;;;;;;;;19.74;67.52;101609.94;7395850;19;1467;-56
2023/05/13 05:52:42;;;;;;;;;;;;;;;19.68;67.19;101630.00;7394482;19;1480;-56
2023/05/13 05:55:11;;;;;;;;;;;;;;;19.63;67.38;101628.66;7396644;19;1478;-56
2023/05/13 05:57:39;;;;;;;;;;;;;;;19.63;67.22;101623.28;7396794;19;1546;-56
2023/05/13 06:00:11;;;;;;;;;;;;;;;19.56;67.25;101636.34;7395365;19;1850;-55
2023/05/13 06:02:39;;;;;;;;;;;;;;;19.88;66.33;101621.44;7394854;19;1360;-55
2023/05/13 06:05:08;;;;;;;;;;;;;;;19.97;67.17;101637.63;7395757;19;1463;-56
2023/05/13 06:07:36;;;;;;;;;;;;;;;19.88;67.29;101629.47;7394555;19;1496;-61
2023/05/13 06:10:05;;;;;;;;;;;;;;;19.71;67.45;101631.63;7398262;19;1654;-60
2023/05/13 06:12:33;;;;;;;;;;;;;;;19.61;67.75;101617.19;7397310;19;1186;-54
2023/05/13 06:15:05;;;;;;;;;;;;;;;19.60;68.01;101623.53;7397575;19;1534;-61
2023/05/13 06:17:36;;;;;;;;;;;;;;;19.53;68.30;101628.50;7401555;19;1534;-61
2023/05/13 06:20:04;;;;;;;;;;;;;;;19.80;67.83;101616.66;7401208;19;1545;-57
2023/05/13 06:22:33;;;;;;;;;;;;;;;20.09;66.59;101617.03;7395561;19;1847;-57
2023/05/13 06:25:01;;;;;;;;;;;;;;;19.94;67.12;101611.06;7397899;19;1238;-56
2023/05/13 06:27:29;;;;;;;;;;;;;;;19.80;67.63;101627.38;7400993;19;1213;-57
2023/05/13 06:29:58;;;;;;;;;;;;;;;19.74;68.27;101626.03;7401581;19;1643;-58
2023/05/13 06:32:26;;;;;;;;;;;;;;;19.60;68.33;101620.84;7401873;19;1448;-58
2023/05/13 06:34:57;;;;;;;;;;;;;;;19.48;68.49;101625.34;7399714;19;1549;-58
2023/05/13 06:37:25;;;;;;;;;;;;;;;19.45;68.81;101628.25;7399690;19;1491;-58
2023/05/13 06:39:54;;;;;;;;;;;;;;;19.59;68.60;101619.13;7392312;19;1317;-57
2023/05/13 06:42:22;;;;;;;;;;;;;;;20.16;65.98;101617.41;7397211;19;1842;-60
2023/05/13 06:44:52;;;;;;;;;;;;;;;20.22;65.77;101608.84;7399380;19;1455;-58
2023/05/13 06:47:21;;;;;;;;;;;;;;;20.04;66.03;101611.19;7397229;19;1372;-58
2023/05/13 06:49:49;;;;;;;;;;;;;;;19.91;66.77;101616.66;7400662;19;1428;-58
2023/05/13 06:52:20;;;;;;;;;;;;;;;19.81;66.45;101608.47;7399665;19;1518;-58
2023/05/13 06:54:48;;;;;;;;;;;;;;;19.84;66.15;101613.59;7400151;19;1415;-56
2023/05/13 06:57:17;;;;;;;;;;;;;;;19.70;66.12;101621.84;7396818;19;1661;-59
2023/05/13 06:59:46;;;;;;;;;;;;;;;19.74;65.80;101609.94;7397289;19;1234;-58
2023/05/13 07:02:14;;;;;;;;;;;;;;;19.84;65.93;101618.13;7395208;19;1868;-55
2023/05/13 07:04:42;;;;;;;;;;;;;;;20.24;64.54;101610.44;7395378;19;1788;-58
2023/05/13 07:07:10;;;;;;;;;;;;;;;20.23;64.84;101615.91;7395534;19;1682;-58
2023/05/13 07:09:41;;;;;;;;;;;;;;;20.02;65.33;101607.75;7393503;19;1806;-56
2023/05/13 07:12:10;;;;;;;;;;;;;;;19.88;65.92;101618.75;7395206;19;1573;-56
2023/05/13 07:14:39;;;;;;;;;;;;;;;19.72;66.06;101616.41;7394364;19;1534;-57
2023/05/13 07:17:07;;;;;;;;;;;;;;;19.73;65.89;101629.69;7394642;19;1222;-56
2023/05/13 07:19:36;;;;;;;;;;;;;;;19.67;65.81;101614.03;7396410;19;1106;-56
2023/05/13 07:22:04;;;;;;;;;;;;;;;19.52;66.68;101615.19;7393188;19;1908;-57
2023/05/13 07:24:32;;;;;;;;;;;;;;;19.71;66.14;101612.84;7392080;19;3053;-56
2023/05/13 07:27:03;;;;;;;;;;;;;;;20.11;64.71;101617.75;7396999;19;1265;-56
2023/05/13 07:29:32;;;;;;;;;;;;;;;20.10;64.56;101605.31;7398040;19;1624;-56
2023/05/13 07:32:04;;;;;;;;;;;;;;;19.96;65.09;101609.09;7399703;19;1815;-56
2023/05/13 07:34:32;;;;;;;;;;;;;;;19.68;65.66;101603.19;7398446;19;1546;-56
2023/05/13 07:37:01;;;;;;;;;;;;;;;19.55;65.63;101614.97;7395437;19;1365;-56
2023/05/13 07:39:29;;;;;;;;;;;;;;;19.51;66.02;101618.88;7398621;19;1527;-56
2023/05/13 07:41:57;;;;;;;;;;;;;;;19.51;65.92;101610.81;7397763;19;1859;-57
2023/05/13 07:44:29;;;;;;;;;;;;;;;19.44;64.91;101607.78;7397385;19;1365;-56
2023/05/13 07:46:57;;;;;;;;;;;;;;;19.63;64.75;101620.59;7396819;19;1418;-54
2023/05/13 07:49:25;;;;;;;;;;;;;;;20.19;62.64;101625.19;7394354;19;1396;-56
2023/05/13 07:51:53;;;;;;;;;;;;;;;20.18;62.67;101624.34;7394574;19;1215;-56
2023/05/13 07:54:22;;;;;;;;;;;;;;;20.02;62.36;101623.88;7399129;19;1376;-57
2023/05/13 07:56:50;;;;;;;;;;;;;;;19.84;62.99;101621.66;7396406;19;1459;-56
2023/05/13 07:59:19;;;;;;;;;;;;;;;19.77;63.18;101625.78;7394802;19;1499;-56
2023/05/13 08:01:51;;;;;;;;;;;;;;;19.77;62.46;101615.03;7394086;19;1855;-56
2023/05/13 08:04:19;;;;;;;;;;;;;;;19.67;61.39;101624.75;7395445;19;1397;-56
2023/05/13 08:06:47;;;;;;;;;;;;;;;19.57;61.86;101619.25;7393921;19;1270;-57
2023/05/13 08:09:15;;;;;;;;;;;;;;;19.45;61.79;101615.69;7396332;19;1613;-56
2023/05/13 08:11:44;;;;;;;;;;;;;;;19.85;60.28;101609.06;7396165;19;1341;-56
2023/05/13 08:14:12;;;;;;;;;;;;;;;19.88;57.42;101611.53;7393377;19;1534;-55
2023/05/13 08:16:40;;;;;;;;;;;;;;;19.67;59.82;101611.34;7395719;19;1455;-55
2023/05/13 08:19:11;;;;;;;;;;;;;;;19.68;60.05;101608.53;7396479;19;1475;-54
2023/05/13 08:21:40;;;;;;;;;;;;;;;19.66;59.90;101605.13;7391734;19;1880;-54
2023/05/13 08:24:08;;;;;;;;;;;;;;;19.58;60.80;101609.41;7396945;19;1788;-54
2023/05/13 08:26:36;;;;;;;;;;;;;;;19.53;61.38;101606.19;7395931;19;1511;-55
2023/05/13 08:29:18;;;;;;;;;;;;;;;19.52;61.75;101625.94;7259063;19;3286709;-55
2023/05/13 08:31:46;;;;;;;;;;;;;;;19.45;61.68;101609.47;7431591;19;1723;-55
2023/05/13 08:34:15;;;;;;;;;;;;;;;19.85;61.00;101617.97;7431031;19;1531;-55
2023/05/13 08:36:44;;;;;;;;;;;;;;;20.05;60.29;101616.44;7429786;19;1375;-55
2023/05/13 08:39:12;;;;;;;;;;;;;;;19.84;59.83;101626.19;7429709;19;1530;-55
2023/05/13 08:41:42;;;;;;;;;;;;;;;19.79;60.52;101613.09;7428630;19;1382;-55
2023/05/13 08:44:11;;;;;;;;;;;;;;;19.77;61.21;101619.56;7423789;19;1387;-55
2023/05/13 08:46:43;;;;;;;;;;;;;;;19.63;61.48;101617.91;7429031;19;1115;-55
2023/05/13 08:49:11;;;;;;;;;;;;;;;19.59;62.26;101628.03;7428192;19;1851;-55
2023/05/13 08:51:40;;;;;;;;;;;;;;;19.71;62.27;101623.56;7431986;19;1546;-55
2023/05/13 08:54:11;;;;;;;;;;;;;;;19.65;62.59;101624.03;7429829;19;1252;-56
2023/05/13 08:56:39;;;;;;;;;;;;;;;19.55;63.19;101618.50;7432186;19;1508;-55
2023/05/13 08:59:08;;;;;;;;;;;;;;;19.46;63.55;101612.03;7431096;19;1510;-55
2023/05/13 09:01:36;;;;;;;;;;;;;;;19.58;63.64;101615.59;7432434;19;1399;-56
2023/05/13 09:04:08;;;;;;;;;;;;;;;19.52;63.09;101609.84;7429177;19;1388;-56
2023/05/13 09:06:36;;;;;;;;;;;;;;;19.25;61.85;101621.72;7431659;19;1486;-55
2023/05/13 09:09:05;;;;;;;;;;;;;;;19.25;63.04;101608.31;7426399;19;1842;-55
2023/05/13 09:11:34;;;;;;;;;;;;;;;19.19;62.61;101603.41;7427474;19;1728;-55
2023/05/13 09:14:06;;;;;;;;;;;;;;;19.17;62.35;101597.31;7429184;19;1403;-55
2023/05/13 09:16:35;;;;;;;;;;;;;;;19.15;62.61;101596.56;7431450;19;1490;-55
2023/05/13 09:19:05;;;;;;;;;;;;;;;19.19;60.31;101598.91;7431549;19;1190;-56
2023/05/13 09:21:37;;;;;;;;;;;;;;;19.43;60.49;101612.25;7430287;19;1910;-55
2023/05/13 09:24:09;;;;;;;;;;;;;;;19.59;60.87;101617.31;7428688;19;1576;-55
2023/05/13 09:26:37;;;;;;;;;;;;;;;19.41;61.48;101606.16;7425801;19;1304;-55
2023/05/13 09:29:20;;;;;;;;;;;;;;;19.26;61.57;101610.03;7425007;19;1877;-55
2023/05/13 09:31:50;;;;;;;;;;;;;;;19.27;61.01;101617.09;7425637;19;1187;-55
2023/05/13 09:34:26;;;;;;;;;;;;;;;19.16;62.09;101603.63;7426830;19;1969;-55
2023/05/13 09:37:07;;;;;;;;;;;;;;;19.21;61.27;101607.69;7427833;19;1249;-55
2023/05/13 09:39:36;;;;;;;;;;;;;;;19.34;58.41;101612.09;7408837;19;1967;-55
2023/05/13 09:42:04;;;;;;;;;;;;;;;19.36;57.62;101610.16;7398658;19;1913;-56
2023/05/13 09:44:33;;;;;;;;;;;;;;;19.50;57.64;101606.41;7399502;19;1648;-55
2023/05/13 09:47:01;;;;;;;;;;;;;;;19.54;57.23;101589.16;7397580;19;1617;-56
2023/05/13 09:49:30;;;;;;;;;;;;;;;19.29;54.13;101604.41;7396404;19;1856;-55
2023/05/13 09:51:58;;;;;;;;;;;;;;;19.33;54.21;101597.84;7396288;19;1162;-55
2023/05/13 09:54:35;;;;;;;;;;;;;;;19.38;53.95;101594.84;7396901;19;1047;-55
2023/05/13 09:57:03;;;;;;;;;;;;;;;19.51;54.43;101579.47;7397246;19;1049;-55
2023/05/13 09:59:33;;;;;;;;;;;;;;;19.54;53.73;101592.66;7397689;19;1522;-55
2023/05/13 10:02:02;;;;;;;;;;;;;;;19.40;55.36;101596.41;7396366;19;1281;-56
2023/05/13 10:04:30;;;;;;;;;;;;;;;19.25;56.43;101586.84;7396901;19;1546;-55
2023/05/13 10:07:00;;;;;;;;;;;;;;;19.40;54.43;101584.84;7399776;19;1296;-55
2023/05/13 10:09:33;;;;;;;;;;;;;;;19.37;54.77;101591.28;7399164;19;1873;-55
2023/05/13 10:12:03;;;;;;;;;;;;;;;19.30;56.52;101581.13;7399666;19;1530;-55
2023/05/13 10:14:33;;;;;;;;;;;;;;;19.12;56.38;101570.88;7400020;19;1554;-55
2023/05/13 10:17:01;;;;;;;;;;;;;;;18.95;56.49;101576.63;7399855;19;1568;-55
2023/05/13 10:19:30;;;;;;;;;;;;;;;18.99;55.98;101581.66;7398763;19;1558;-55
2023/05/13 10:21:59;;;;;;;;;;;;;;;18.90;56.77;101582.34;7399373;19;1608;-55
2023/05/13 10:24:28;;;;;;;;;;;;;;;18.86;57.09;101584.41;7400106;19;1039;-55
2023/05/13 10:27:00;;;;;;;;;;;;;;;18.86;57.33;101572.81;7400669;19;1887;-55
2023/05/13 10:29:30;;;;;;;;;;;;;;;18.80;56.99;101570.59;7397495;19;1867;-55
2023/05/13 10:32:00;;;;;;;;;;;;;;;18.86;56.54;101575.47;7400442;19;1094;-55
2023/05/13 10:34:30;;;;;;;;;;;;;;;18.85;56.41;101568.44;7400122;19;1499;-55
2023/05/13 10:37:04;;;;;;;;;;;;;;;18.89;56.32;101567.22;7399942;19;1522;-55
2023/05/13 10:39:44;;;;;;;;;;;;;;;18.99;54.81;101565.56;7397050;19;1554;-55
2023/05/13 10:42:39;;;;;;;;;;;;;;;19.01;53.28;101557.41;7399608;19;1312;-55
2023/05/13 10:45:10;;;;;;;;;;;;;;;19.06;53.93;101561.47;7399238;19;1242;-56
2023/05/13 10:47:39;;;;;;;;;;;;;;;19.22;53.46;101571.88;7399465;19;1966;-56
2023/05/13 10:50:08;;;;;;;;;;;;;;;19.25;53.26;101566.25;7398365;19;1462;-56
2023/05/13 10:52:48;;;;;;;;;;;;;;;19.28;53.09;101575.91;7397864;19;1269;-56
2023/05/13 10:55:17;;;;;;;;;;;;;;;19.21;53.90;101574.66;7399215;19;1273;-56
2023/05/13 10:58:00;;;;;;;;;;;;;;;19.14;56.04;101562.69;7399553;19;1546;-56
2023/05/13 11:00:36;;;;;;;;;;;;;;;19.27;56.94;101575.03;7395834;19;1857;-61
2023/05/13 11:03:10;;;;;;;;;;;;;;;19.38;55.42;101566.19;7399657;19;1254;-60
2023/05/13 11:05:40;;;;;;;;;;;;;;;19.24;61.27;101564.56;7396934;19;2067;-60
2023/05/13 11:08:08;;;;;;;;;;;;;;;19.24;61.11;101582.47;7398491;19;1850;-57
2023/05/13 11:10:37;;;;;;;;;;;;;;;19.24;59.38;101583.31;7397077;19;1831;-55
2023/05/13 11:13:23;;;;;;;;;;;;;;;19.39;59.66;101575.91;7397491;19;1216;-56
2023/05/13 11:15:55;;;;;;;;;;;;;;;19.30;59.88;101584.69;7399303;19;1553;-57
2023/05/13 11:18:31;;;;;;;;;;;;;;;19.45;59.81;101570.06;7395727;19;1357;-56
2023/05/13 11:21:03;;;;;;;;;;;;;;;19.50;58.44;101584.97;7396340;19;1803;-54
2023/05/13 11:23:34;;;;;;;;;;;;;;;19.57;59.47;101583.53;7395209;19;1497;-54
2023/05/13 11:26:15;;;;;;;;;;;;;;;19.47;60.52;101591.44;7395262;19;1550;-55
2023/05/13 11:28:58;;;;;;;;;;;;;;;19.31;61.29;101567.63;7396761;19;1869;-55
2023/05/13 11:31:31;;;;;;;;;;;;;;;19.36;61.85;101584.22;7396084;19;1673;-47
2023/05/13 11:34:09;;;;;;;;;;;;;;;19.48;61.76;101583.25;7395591;19;1594;-47
2023/05/13 11:36:38;;;;;;;;;;;;;;;19.45;61.92;101562.03;7395772;19;1477;-47
2023/05/13 11:39:09;;;;;;;;;;;;;;;19.56;60.20;101581.81;7395446;19;1436;-46
2023/05/13 11:41:38;;;;;;;;;;;;;;;19.70;60.69;101586.97;7396329;19;1546;-46
2023/05/13 11:44:07;;;;;;;;;;;;;;;19.61;60.57;101576.94;7395438;19;1598;-47
2023/05/13 11:46:38;;;;;;;;;;;;;;;19.68;61.62;101591.59;7395762;19;1201;-47
2023/05/13 11:49:06;;;;;;;;;;;;;;;19.78;61.27;101579.19;7394733;19;1850;-48
2023/05/13 11:51:35;;;;;;;;;;;;;;;19.65;61.27;101576.56;7394574;19;1914;-47
2023/05/13 11:54:05;;;;;;;;;;;;;;;19.56;61.77;101584.50;7395202;19;1522;-47
2023/05/13 11:56:33;;;;;;;;;;;;;;;19.44;62.39;101581.78;7394537;19;1442;-46
2023/05/13 11:59:16;;;;;;;;;;;;;;;19.52;61.62;101572.28;7395775;19;1620;-47
2023/05/13 12:01:47;;;;;;;;;;;;;;;19.46;62.26;101566.44;7394929;19;1480;-47
2023/05/13 12:04:16;;;;;;;;;;;;;;;19.42;62.12;101585.56;7398113;19;1521;-47
2023/05/13 12:06:47;;;;;;;;;;;;;;;19.45;62.16;101591.53;7396711;19;1609;-46
2023/05/13 12:09:16;;;;;;;;;;;;;;;19.51;61.64;101578.63;7396308;19;1848;-46
2023/05/13 12:11:44;;;;;;;;;;;;;;;19.53;61.88;101576.69;7395711;19;1602;-46
2023/05/13 12:14:12;;;;;;;;;;;;;;;19.48;61.29;101585.09;7395085;19;1564;-46
2023/05/13 12:16:41;;;;;;;;;;;;;;;19.43;62.32;101598.84;7395297;19;1518;-46
2023/05/13 12:19:12;;;;;;;;;;;;;;;19.52;61.53;101583.88;7396575;19;1544;-46
2023/05/13 12:21:40;;;;;;;;;;;;;;;19.52;61.10;101578.53;7397093;19;1278;-46
2023/05/13 12:24:18;;;;;;;;;;;;;;;19.53;62.26;101588.25;7396477;19;1941;-46
2023/05/13 12:26:46;;;;;;;;;;;;;;;19.66;61.65;101589.03;7394993;19;1506;-46
2023/05/13 12:29:15;;;;;;;;;;;;;;;19.34;62.73;101591.53;7391389;19;1918;-46
2023/05/13 12:31:44;;;;;;;;;;;;;;;19.38;60.83;101578.75;7397896;19;1126;-46
2023/05/13 12:34:15;;;;;;;;;;;;;;;19.31;61.42;101581.03;7395022;19;1435;-46
2023/05/13 12:36:43;;;;;;;;;;;;;;;19.50;60.77;101568.88;7393688;19;1513;-46
2023/05/13 12:39:12;;;;;;;;;;;;;;;19.54;60.88;101570.38;7394306;19;1629;-46
2023/05/13 12:41:42;;;;;;;;;;;;;;;19.30;60.51;101552.50;7395363;19;1487;-46
2023/05/13 12:44:12;;;;;;;;;;;;;;;19.29;58.95;101556.16;7396652;19;1503;-46
2023/05/13 12:46:41;;;;;;;;;;;;;;;19.38;60.71;101549.25;7396743;19;1459;-46
2023/05/13 12:49:10;;;;;;;;;;;;;;;19.35;59.05;101550.31;7395820;19;1859;-46
2023/05/13 12:51:41;;;;;;;;;;;;;;;19.38;58.89;101533.16;7396798;19;999;-46
2023/05/13 12:54:10;;;;;;;;;;;;;;;19.48;59.82;101526.94;7396339;19;1853;-47
2023/05/13 12:56:39;;;;;;;;;;;;;;;19.56;60.11;101544.28;7395807;19;1468;-46
2023/05/13 12:59:07;;;;;;;;;;;;;;;19.58;60.15;101534.28;7395556;19;1625;-46